Flight Track Log - Related Links

Times and Time Zones

All times are in EDT time to prevent confusion due to time zone crossing. See the FDX1254 flight status page for this flight to view local times or setup timezone preferences in your user account.

Time Position Orientation Groundspeed Altitude Reporting Facility
EDT Latitude Longitude Course Direction KTS MPH feet Rate Location/Type
Fri 11:32:18 PM 40.8230 -85.2750 218° Southwest 318 366 11,800  Level FlightAware ADS-B
Fri 11:33:12 PM 40.7630 -85.3450 221° Southwest 355 409 12,500 2,732 Climbing FlightAware ADS-B
Fri 11:34:10 PM 40.7130 -85.4740 243° Southwest 386 444 16,900 3,879 Climbing FlightAware ADS-B
Fri 11:34:51 PM 40.6740 -85.5580 239° Southwest 400 460 18,900 2,925 Climbing FlightAware ADS-B
Fri 11:35:30 PM 40.6370 -85.6380 239° Southwest 408 470 20,800 2,682 Climbing FlightAware ADS-B
Fri 11:36:16 PM 40.5750 -85.7130 223° Southwest 424 488 22,700 2,581 Climbing FlightAware ADS-B
Fri 11:36:56 PM 40.5020 -85.7760 213° Southwest 433 498 24,500 2,512 Climbing FlightAware ADS-B
Fri 11:37:42 PM 40.4250 -85.8420 213° Southwest 440 506 26,300 2,233 Climbing FlightAware ADS-B
Fri 11:38:22 PM 40.3560 -85.9010 213° Southwest 446 513 27,700 2,025 Climbing FlightAware ADS-B
Fri 11:39:02 PM 40.2870 -85.9620 214° Southwest 455 524 29,000 1,714 Climbing FlightAware ADS-B
Fri 11:39:46 PM 40.2100 -86.0280 213° Southwest 440 506 30,100 682 Climbing FlightAware ADS-B
Fri 11:40:30 PM 40.1350 -86.0930 214° Southwest 431 496 30,000 -71 Descending FlightAware ADS-B
Fri 11:41:11 PM 40.0680 -86.1500 213° Southwest 432 497 30,000 75 Level FlightAware ADS-B
Fri 11:41:50 PM 40.0020 -86.2070 213° Southwest 439 505 30,100 1,084 Climbing FlightAware ADS-B
Fri 11:42:34 PM 39.9270 -86.2720 214° Southwest 426 490 31,500 2,571 Climbing FlightAware ADS-B
Fri 11:43:14 PM 39.8660 -86.3240 213° Southwest 393 452 33,700 1,902 Climbing FlightAware ADS-B
Fri 11:43:56 PM 39.8000 -86.3790 213° Southwest 403 464 34,100 279 Climbing FlightAware ADS-B
Fri 11:44:40 PM 39.7290 -86.4330 210° Southwest 407 468 34,100  Level FlightAware ADS-B
Fri 11:45:20 PM 39.6620 -86.4820 209° Southwest 409 471 34,100  Level FlightAware ADS-B
Fri 11:46:04 PM 39.5920 -86.5360 211° Southwest 407 468 34,100  Level FlightAware ADS-B
Fri 11:46:46 PM 39.5220 -86.5890 210° Southwest 406 467 34,100  Level FlightAware ADS-B
Fri 11:47:30 PM 39.4510 -86.6430 210° Southwest 405 466 34,100  Level FlightAware ADS-B
Fri 11:48:10 PM 39.3860 -86.6920 210° Southwest 404 465 34,100  Level FlightAware ADS-B
Fri 11:48:50 PM 39.3210 -86.7410 210° Southwest 404 465 34,100  Level FlightAware ADS-B
Fri 11:49:32 PM 39.2530 -86.7910 210° Southwest 405 466 34,100  Level FlightAware ADS-B
Fri 11:50:16 PM 39.1820 -86.8440 210° Southwest 405 466 34,100  Level FlightAware ADS-B
Fri 11:50:56 PM 39.1170 -86.8920 210° Southwest 407 468 34,100  Level FlightAware ADS-B
Fri 11:51:40 PM 39.0460 -86.9460 211° Southwest 409 471 34,100  Level FlightAware ADS-B
Fri 11:52:22 PM 38.9760 -86.9980 210° Southwest 410 472 34,100  Level FlightAware ADS-B
Fri 11:53:00 PM 38.9130 -87.0440 210° Southwest 413 475 34,100  Level FlightAware ADS-B
Fri 11:53:47 PM 38.8390 -87.0990 210° Southwest 416 479 34,100  Level FlightAware ADS-B
Fri 11:54:27 PM 38.7670 -87.1520 210° Southwest 420 483 34,100  Level FlightAware ADS-B
Fri 11:55:10 PM 38.6940 -87.2060 210° Southwest 424 488 34,100  Level FlightAware ADS-B
Fri 11:55:53 PM 38.6240 -87.2580 210° Southwest 426 490 34,100  Level FlightAware ADS-B
Fri 11:56:33 PM 38.5550 -87.3080 210° Southwest 430 495 34,100  Level FlightAware ADS-B
Fri 11:57:18 PM 38.4760 -87.3650 209° Southwest 431 496 34,100  Level FlightAware ADS-B
Fri 11:57:58 PM 38.4040 -87.4180 210° Southwest 433 498 34,100  Level FlightAware ADS-B
Fri 11:58:39 PM 38.3340 -87.4690 210° Southwest 435 501 34,100  Level FlightAware ADS-B
Fri 11:59:18 PM 38.2650 -87.5190 210° Southwest 436 502 34,100  Level FlightAware ADS-B
Sat 12:00:02 AM 38.1890 -87.5750 210° Southwest 436 502 34,100  Level FlightAware ADS-B
Sat 12:00:45 AM 38.1120 -87.6290 209° Southwest 436 502 34,100 -70 Level FlightAware ADS-B
Sat 12:01:28 AM 38.0360 -87.6850 210° Southwest 435 501 34,000 -795 Descending FlightAware ADS-B
Sat 12:02:08 AM 37.9670 -87.7350 210° Southwest 431 496 33,000 -1,341 Descending FlightAware ADS-B
Sat 12:02:53 AM 37.9010 -87.8020 219° Southwest 439 505 32,100 -643 Descending FlightAware ADS-B
Sat 12:03:32 AM 37.8440 -87.8830 228° Southwest 446 513 32,100  Level FlightAware ADS-B
Sat 12:04:14 AM 37.7890 -87.9630 229° Southwest 447 514 32,100  Level FlightAware ADS-B
Sat 12:04:57 AM 37.7310 -88.0480 229° Southwest 446 513 32,100  Level FlightAware ADS-B
Sat 12:05:39 AM 37.6720 -88.1320 228° Southwest 446 513 32,100  Level FlightAware ADS-B
Sat 12:06:21 AM 37.6150 -88.2140 229° Southwest 445 512 32,100  Level FlightAware ADS-B
Sat 12:07:05 AM 37.5550 -88.3000 229° Southwest 444 511 32,100  Level FlightAware ADS-B
Sat 12:07:47 AM 37.5000 -88.3800 229° Southwest 444 511 32,100  Level FlightAware ADS-B
Sat 12:08:27 AM 37.4430 -88.4590 228° Southwest 443 510 32,100  Level FlightAware ADS-B
Sat 12:09:08 AM 37.3880 -88.5380 229° Southwest 442 509 32,100  Level FlightAware ADS-B
Sat 12:10:01 AM 37.3220 -88.6310 228° Southwest 442 509 32,100  Level FlightAware ADS-B
Sat 12:10:49 AM 37.2660 -88.7090 228° Southwest 442 509 32,100  Level FlightAware ADS-B
Sat 12:11:25 AM 37.2240 -88.7670 228° Southwest 442 509 32,100  Level FlightAware ADS-B
Sat 12:12:14 AM 37.1670 -88.8470 228° Southwest 442 509 32,100  Level FlightAware ADS-B
Sat 12:12:50 AM 37.1250 -88.9050 228° Southwest 442 509 32,100  Level FlightAware ADS-B
Sat 12:13:38 AM 37.0690 -88.9830 228° Southwest 442 509 32,100  Level FlightAware ADS-B
Sat 12:14:14 AM 37.0270 -89.0410 228° Southwest 442 509 32,100  Level FlightAware ADS-B
Sat 12:15:02 AM 36.9710 -89.1190 228° Southwest 442 509 32,100  Level FlightAware ADS-B
Sat 12:15:39 AM 36.9280 -89.1780 228° Southwest 442 509 32,100  Level FlightAware ADS-B
Sat 12:16:18 AM 36.8830 -89.2410 228° Southwest 442 509 32,100  Level FlightAware ADS-B
Sat 12:17:06 AM 36.8270 -89.3190 228° Southwest 442 509 32,100  Level FlightAware ADS-B
Sat 12:17:42 AM 36.7850 -89.3770 228° Southwest 442 509 32,100  Level FlightAware ADS-B
Sat 12:18:30 AM 36.7300 -89.4540 228° Southwest 442 509 32,100  Level FlightAware ADS-B
Sat 12:19:06 AM 36.6880 -89.5120 228° Southwest 442 509 32,100 -5,512 Level FlightAware ADS-B
Sat 12:19:56 AM 36.4442 -89.6553 228° Southwest 428 493 24,200 -5,564 Descending Memphis Center
Sat 12:20:56 AM 36.3278 -89.6794 189° South 428 493 21,900 -2,300 Descending Memphis Center
Sat 12:21:56 AM 36.2153 -89.7061 191° South 428 493 19,600 -2,250 Descending Memphis Center
Sat 12:22:56 AM 36.1092 -89.7328 191° South 414 476 17,400 -2,250 Descending Memphis Center
Sat 12:23:56 AM 36.0028 -89.7567 190° South 402 463 15,100 -2,300 Descending Memphis Center
Sat 12:24:56 AM 35.9008 -89.7806 191° South 386 444 12,800 -2,200 Descending Memphis Center
Sat 12:25:56 AM 35.8028 -89.8017 190° South 375 432 10,700 -1,350 Descending Memphis Center
Sat 12:26:56 AM 35.7153 -89.8175 188° South 348 400 10,100 -950 Descending Memphis Center
Sat 12:27:56 AM 35.6425 -89.8283 187° South 298 343 8,800 -1,400 Descending Memphis Center
Sat 12:28:56 AM 35.5672 -89.7931 159° South 269 310 7,300 -1,550 Descending Memphis Center
Sat 12:29:56 AM 35.4939 -89.7603 160° South 280 322 5,700 -1,550 Descending Memphis Center
Sat 12:30:56 AM 35.4208 -89.7278 160° South 286 329 4,200 -850 Descending Memphis Center
Sat 12:31:56 AM 35.3478 -89.6953 160° South 286 329 4,000 -100 Descending Memphis Center
Sat 12:32:56 AM 35.2767 -89.6806 170° South 264 304 4,000 -100 Level Memphis Center
Sat 12:33:56 AM 35.2100 -89.6811 180° South 249 287 3,800 -500 Descending Memphis Center
Sat 12:34:56 AM 35.1472 -89.6817 180° South 234 269 3,000 -350 Descending Memphis Center
Sat 12:35:56 AM 35.0869 -89.6972 192° South 234 269 3,100  Climbing Memphis Center
Sat 12:36:56 AM 35.0539 -89.7636 239° Southwest 215 247 3,000 -450 Descending Memphis Center
Sat 12:37:56 AM 35.0542 -89.8369 270° West 209 241 2,200 -850 Descending Memphis Center
Sat 12:38:56 AM 35.0567 -89.9006 273° West 200 230 1,300 -800 Descending Memphis Center
Sat 12:39:56 AM 35.0589 -89.9486 273° West 165 190 600 -700 Descending Memphis Center
Sat 12:42:00 AM 35.0333 -89.9667 264° West  Level FlightAware Approximate

Login

Don't have an account? Register now (free) for customized features, flight alerts, and more!